IBE14N HAAB-OEMA
Flight info
| Callsign | IBE14N |
|---|---|
| Flight time | 2h 16m |
| Altitude | 38000 |
| Route | EKBOB1A EKBOB DCT KONET/N0444F390 UG650 RASKA/N0442F380 T513 EGMEG/N0437F390 T513 JDW A424 RULEB/N0437F380 A424 DEGVU |
| Aircraft | A320/M-SDE3FGHIRWY/LB1 |
Departure
| Time | 2026-05-06 07:50 |
|---|---|
| Airport | Addis Ababa Bole International Airport (HAAB) |
Arrival
| Time | 2026-05-06 10:07 |
|---|---|
| Airport | Prince Mohammad Bin Abdulaziz Airport (OEMA) |
| Time | Latitude | Longitude | Altitude | Speed | Heading |
|---|---|---|---|---|---|
| 2026-05-06 07:37 | 8.97849 | 38.78303 | 7607 ft | 0 kts | 342° |
| 2026-05-06 07:41 | 8.97841 | 38.78306 | 7628 ft | 3 kts | 339° |
| 2026-05-06 07:42 | 8.97823 | 38.78313 | 7625 ft | 3 kts | 338° |
| 2026-05-06 07:42 | 8.97814 | 38.78317 | 7632 ft | 9 kts | 330° |
| 2026-05-06 07:44 | 8.97800 | 38.78328 | 7627 ft | 3 kts | 297° |
| 2026-05-06 07:44 | 8.97795 | 38.78345 | 7625 ft | 3 kts | 260° |
| 2026-05-06 07:44 | 8.97796 | 38.78351 | 7625 ft | 0 kts | 247° |
| 2026-05-06 07:45 | 8.97785 | 38.78342 | 7630 ft | 9 kts | 212° |
| 2026-05-06 07:45 | 8.97712 | 38.78255 | 7625 ft | 19 kts | 243° |
| 2026-05-06 07:45 | 8.97617 | 38.78204 | 7626 ft | 21 kts | 170° |
| 2026-05-06 07:45 | 8.97490 | 38.78240 | 7629 ft | 14 kts | 164° |
| 2026-05-06 07:46 | 8.97420 | 38.78278 | 7627 ft | 11 kts | 108° |
| 2026-05-06 07:46 | 8.97423 | 38.78318 | 7627 ft | 0 kts | 72° |
| 2026-05-06 07:49 | 8.97423 | 38.78319 | 7627 ft | 1 kts | 72° |
| 2026-05-06 07:49 | 8.97454 | 38.78420 | 7626 ft | 44 kts | 73° |
| 2026-05-06 07:49 | 8.97603 | 38.78933 | 7622 ft | 106 kts | 73° |
| 2026-05-06 07:49 | 8.97860 | 38.79820 | 7622 ft | 154 kts | 75° |
| 2026-05-06 07:50 | 8.98213 | 38.80916 | 7941 ft | 170 kts | 74° |
| 2026-05-06 07:50 | 8.98535 | 38.82050 | 8604 ft | 172 kts | 74° |
| 2026-05-06 07:50 | 8.98844 | 38.83221 | 9304 ft | 171 kts | 75° |
| 2026-05-06 07:50 | 8.99145 | 38.84377 | 9952 ft | 172 kts | 76° |
| 2026-05-06 07:51 | 8.99465 | 38.85593 | 10265 ft | 186 kts | 75° |
| 2026-05-06 07:51 | 8.99815 | 38.86906 | 10545 ft | 201 kts | 76° |
| 2026-05-06 07:51 | 9.00195 | 38.88321 | 10826 ft | 217 kts | 75° |
| 2026-05-06 07:51 | 9.00608 | 38.89841 | 11108 ft | 232 kts | 75° |
| 2026-05-06 07:52 | 9.01054 | 38.91469 | 11391 ft | 249 kts | 74° |
| 2026-05-06 07:52 | 9.01533 | 38.93209 | 11790 ft | 262 kts | 74° |
| 2026-05-06 07:52 | 9.02030 | 38.95002 | 12412 ft | 266 kts | 73° |
| 2026-05-06 07:52 | 9.02900 | 38.96643 | 13093 ft | 268 kts | 50° |
| 2026-05-06 07:53 | 9.04277 | 38.97938 | 13685 ft | 273 kts | 39° |
| 2026-05-06 07:53 | 9.05835 | 38.99074 | 14253 ft | 278 kts | 37° |
| 2026-05-06 07:53 | 9.07445 | 39.00183 | 14813 ft | 280 kts | 36° |
| 2026-05-06 07:53 | 9.09048 | 39.01317 | 15352 ft | 283 kts | 37° |
| 2026-05-06 07:54 | 9.10638 | 39.02496 | 15885 ft | 285 kts | 39° |
| 2026-05-06 07:54 | 9.12218 | 39.03715 | 16403 ft | 287 kts | 39° |
| 2026-05-06 07:54 | 9.13794 | 39.04970 | 16923 ft | 289 kts | 40° |
| 2026-05-06 07:54 | 9.15371 | 39.06248 | 17457 ft | 292 kts | 40° |
| 2026-05-06 07:55 | 9.16959 | 39.07545 | 17990 ft | 294 kts | 40° |
| 2026-05-06 07:55 | 9.18557 | 39.08853 | 18517 ft | 297 kts | 40° |
| 2026-05-06 07:55 | 9.20181 | 39.10182 | 18849 ft | 308 kts | 40° |
| 2026-05-06 07:55 | 9.21889 | 39.11582 | 19061 ft | 323 kts | 40° |
| 2026-05-06 07:56 | 9.23679 | 39.13046 | 19239 ft | 339 kts | 39° |
| 2026-05-06 07:56 | 9.25608 | 39.14524 | 19406 ft | 356 kts | 33° |
| 2026-05-06 07:56 | 9.27862 | 39.15665 | 19623 ft | 370 kts | 21° |
| 2026-05-06 07:56 | 9.30341 | 39.16322 | 20025 ft | 377 kts | 10° |
| 2026-05-06 07:57 | 9.32972 | 39.16581 | 20499 ft | 382 kts | 6° |
| 2026-05-06 07:57 | 9.35633 | 39.16804 | 20983 ft | 385 kts | 6° |
| 2026-05-06 07:57 | 9.38314 | 39.17030 | 21469 ft | 388 kts | 6° |
| 2026-05-06 07:57 | 9.41019 | 39.17259 | 21951 ft | 392 kts | 6° |
| 2026-05-06 07:58 | 9.43754 | 39.17490 | 22431 ft | 395 kts | 6° |
| 2026-05-06 07:58 | 9.46503 | 39.17720 | 22906 ft | 399 kts | 6° |
| 2026-05-06 07:58 | 9.49284 | 39.17953 | 23218 ft | 402 kts | 6° |
| 2026-05-06 07:58 | 9.52068 | 39.18187 | 23270 ft | 402 kts | 6° |
| 2026-05-06 07:59 | 9.54860 | 39.18419 | 23260 ft | 402 kts | 5° |
| 2026-05-06 07:59 | 9.57652 | 39.18653 | 23256 ft | 403 kts | 6° |
| 2026-05-06 07:59 | 9.60450 | 39.18891 | 23249 ft | 403 kts | 5° |
| 2026-05-06 07:59 | 9.63240 | 39.19127 | 23248 ft | 403 kts | 6° |
| 2026-05-06 08:00 | 9.66032 | 39.19362 | 23238 ft | 403 kts | 6° |
| 2026-05-06 08:00 | 9.68824 | 39.19595 | 23262 ft | 402 kts | 6° |
| 2026-05-06 08:00 | 9.71626 | 39.19827 | 23655 ft | 406 kts | 5° |
| 2026-05-06 08:00 | 9.73495 | 39.19980 | 23942 ft | 408 kts | 5° |
| 2026-05-06 08:01 | 9.76326 | 39.20215 | 24329 ft | 410 kts | 5° |
| 2026-05-06 08:01 | 9.79181 | 39.20455 | 24715 ft | 413 kts | 5° |
| 2026-05-06 08:01 | 9.82050 | 39.20701 | 25089 ft | 415 kts | 5° |
| 2026-05-06 08:01 | 9.84937 | 39.20949 | 25470 ft | 417 kts | 5° |
| 2026-05-06 08:02 | 9.87839 | 39.21196 | 25839 ft | 420 kts | 5° |
| 2026-05-06 08:02 | 9.90758 | 39.21444 | 26203 ft | 422 kts | 5° |
| 2026-05-06 08:02 | 9.93694 | 39.21694 | 26568 ft | 424 kts | 5° |
| 2026-05-06 08:02 | 9.96645 | 39.21940 | 26922 ft | 427 kts | 5° |
| 2026-05-06 08:03 | 9.99612 | 39.22185 | 27267 ft | 429 kts | 5° |
| 2026-05-06 08:03 | 10.02591 | 39.22435 | 27595 ft | 431 kts | 5° |
| 2026-05-06 08:03 | 10.05589 | 39.22689 | 27932 ft | 433 kts | 5° |
| 2026-05-06 08:03 | 10.08600 | 39.22945 | 28264 ft | 436 kts | 5° |
| 2026-05-06 08:04 | 10.11588 | 39.23198 | 28584 ft | 438 kts | 5° |
| 2026-05-06 08:04 | 10.14630 | 39.23455 | 28896 ft | 440 kts | 5° |
| 2026-05-06 08:04 | 10.17694 | 39.23715 | 29208 ft | 442 kts | 5° |
| 2026-05-06 08:04 | 10.20765 | 39.23977 | 29515 ft | 445 kts | 5° |
| 2026-05-06 08:05 | 10.23856 | 39.24238 | 29822 ft | 447 kts | 5° |
| 2026-05-06 08:05 | 10.26961 | 39.24498 | 30120 ft | 449 kts | 5° |
| 2026-05-06 08:05 | 10.30084 | 39.24760 | 30376 ft | 451 kts | 5° |
| 2026-05-06 08:05 | 10.33223 | 39.25024 | 30626 ft | 453 kts | 5° |
| 2026-05-06 08:06 | 10.36379 | 39.25292 | 30867 ft | 455 kts | 5° |
| 2026-05-06 08:06 | 10.39540 | 39.25561 | 31101 ft | 457 kts | 5° |
| 2026-05-06 08:06 | 10.42712 | 39.25830 | 31339 ft | 459 kts | 4° |
| 2026-05-06 08:06 | 10.45903 | 39.26101 | 31562 ft | 461 kts | 4° |
| 2026-05-06 08:07 | 10.49106 | 39.26369 | 31803 ft | 462 kts | 4° |
| 2026-05-06 08:07 | 10.52305 | 39.26640 | 32120 ft | 461 kts | 4° |
| 2026-05-06 08:07 | 10.55500 | 39.26914 | 32455 ft | 460 kts | 4° |
| 2026-05-06 08:07 | 10.58684 | 39.27187 | 32786 ft | 460 kts | 4° |
| 2026-05-06 08:08 | 10.61874 | 39.27460 | 33120 ft | 459 kts | 4° |
| 2026-05-06 08:08 | 10.65057 | 39.27731 | 33451 ft | 459 kts | 4° |
| 2026-05-06 08:08 | 10.68193 | 39.27996 | 33782 ft | 459 kts | 4° |
| 2026-05-06 08:08 | 10.71378 | 39.28184 | 34129 ft | 457 kts | 358° |
| 2026-05-06 08:09 | 10.74546 | 39.28025 | 34423 ft | 456 kts | 355° |
| 2026-05-06 08:09 | 10.77718 | 39.27828 | 34704 ft | 456 kts | 355° |
| 2026-05-06 08:09 | 10.80881 | 39.27627 | 34987 ft | 455 kts | 355° |
| 2026-05-06 08:09 | 10.84040 | 39.27426 | 35256 ft | 455 kts | 355° |
| 2026-05-06 08:10 | 10.87196 | 39.27224 | 35528 ft | 454 kts | 355° |
| 2026-05-06 08:10 | 10.90345 | 39.27023 | 35795 ft | 453 kts | 355° |
| 2026-05-06 08:10 | 10.93495 | 39.26827 | 36050 ft | 453 kts | 355° |
| 2026-05-06 08:10 | 10.96633 | 39.26633 | 36318 ft | 452 kts | 355° |
| 2026-05-06 08:11 | 10.99773 | 39.26440 | 36548 ft | 452 kts | 355° |
| 2026-05-06 08:11 | 11.02906 | 39.26247 | 36778 ft | 451 kts | 355° |
| 2026-05-06 08:11 | 11.06037 | 39.26054 | 37012 ft | 451 kts | 355° |
| 2026-05-06 08:11 | 11.09168 | 39.25860 | 37243 ft | 450 kts | 355° |
| 2026-05-06 08:12 | 11.12287 | 39.25664 | 37455 ft | 449 kts | 355° |
| 2026-05-06 08:12 | 11.15408 | 39.25471 | 37692 ft | 449 kts | 355° |
| 2026-05-06 08:12 | 11.18525 | 39.25281 | 37919 ft | 448 kts | 355° |
| 2026-05-06 08:12 | 11.21639 | 39.25094 | 38099 ft | 448 kts | 355° |
| 2026-05-06 08:13 | 11.27841 | 39.24713 | 38132 ft | 446 kts | 355° |
| 2026-05-06 08:13 | 11.34036 | 39.24324 | 38120 ft | 446 kts | 354° |
| 2026-05-06 08:14 | 11.40187 | 39.23926 | 38115 ft | 446 kts | 354° |
| 2026-05-06 08:14 | 11.46366 | 39.23331 | 38109 ft | 445 kts | 352° |
| 2026-05-06 08:15 | 11.52523 | 39.22596 | 38108 ft | 446 kts | 352° |
| 2026-05-06 08:15 | 11.58682 | 39.21874 | 38110 ft | 446 kts | 352° |
| 2026-05-06 08:16 | 11.64851 | 39.21203 | 38116 ft | 446 kts | 352° |
| 2026-05-06 08:16 | 11.71027 | 39.20544 | 38117 ft | 446 kts | 352° |
| 2026-05-06 08:17 | 11.77193 | 39.19879 | 38114 ft | 445 kts | 352° |
| 2026-05-06 08:17 | 11.83365 | 39.19219 | 38110 ft | 446 kts | 352° |
| 2026-05-06 08:18 | 11.89540 | 39.18549 | 38116 ft | 446 kts | 352° |
| 2026-05-06 08:18 | 11.95714 | 39.17876 | 38115 ft | 446 kts | 352° |
| 2026-05-06 08:19 | 12.01888 | 39.17203 | 38110 ft | 446 kts | 352° |
| 2026-05-06 08:19 | 12.08026 | 39.16537 | 38104 ft | 446 kts | 352° |
| 2026-05-06 08:20 | 12.14201 | 39.15864 | 38099 ft | 446 kts | 352° |
| 2026-05-06 08:20 | 12.20379 | 39.15194 | 38092 ft | 447 kts | 352° |
| 2026-05-06 08:21 | 12.26559 | 39.14525 | 38077 ft | 447 kts | 352° |
| 2026-05-06 08:21 | 12.32735 | 39.13852 | 38067 ft | 447 kts | 352° |
| 2026-05-06 08:22 | 12.38924 | 39.13179 | 38063 ft | 447 kts | 352° |
| 2026-05-06 08:22 | 12.45107 | 39.12508 | 38059 ft | 447 kts | 352° |
| 2026-05-06 08:23 | 12.51291 | 39.11832 | 38039 ft | 446 kts | 352° |
| 2026-05-06 08:23 | 12.57470 | 39.11159 | 38023 ft | 447 kts | 352° |
| 2026-05-06 08:24 | 12.63659 | 39.10487 | 38018 ft | 447 kts | 352° |
| 2026-05-06 08:24 | 12.69850 | 39.09810 | 38009 ft | 447 kts | 352° |
| 2026-05-06 08:25 | 12.76035 | 39.09131 | 37997 ft | 447 kts | 352° |
| 2026-05-06 08:25 | 12.82222 | 39.08457 | 37987 ft | 447 kts | 353° |
| 2026-05-06 08:26 | 12.88413 | 39.07787 | 37979 ft | 447 kts | 352° |
| 2026-05-06 08:26 | 12.94599 | 39.07115 | 37976 ft | 447 kts | 353° |
| 2026-05-06 08:27 | 13.00788 | 39.06434 | 37973 ft | 447 kts | 352° |
| 2026-05-06 08:27 | 13.06981 | 39.05748 | 37971 ft | 448 kts | 352° |
| 2026-05-06 08:28 | 13.13137 | 39.05075 | 37970 ft | 448 kts | 353° |
| 2026-05-06 08:28 | 13.19340 | 39.04402 | 37973 ft | 448 kts | 352° |
| 2026-05-06 08:29 | 13.25546 | 39.03723 | 37968 ft | 448 kts | 352° |
| 2026-05-06 08:29 | 13.31752 | 39.03036 | 37972 ft | 449 kts | 352° |
| 2026-05-06 08:30 | 13.37963 | 39.02348 | 37977 ft | 449 kts | 352° |
| 2026-05-06 08:30 | 13.44175 | 39.01668 | 37978 ft | 449 kts | 352° |
| 2026-05-06 08:31 | 13.50393 | 39.00987 | 37981 ft | 449 kts | 352° |
| 2026-05-06 08:31 | 13.56610 | 39.00303 | 37990 ft | 450 kts | 352° |
| 2026-05-06 08:32 | 13.62835 | 38.99618 | 37990 ft | 450 kts | 352° |
| 2026-05-06 08:32 | 13.69055 | 38.98929 | 37989 ft | 450 kts | 352° |
| 2026-05-06 08:33 | 13.75278 | 38.98244 | 37994 ft | 450 kts | 352° |
| 2026-05-06 08:33 | 13.81502 | 38.97570 | 37993 ft | 450 kts | 352° |
| 2026-05-06 08:34 | 13.90853 | 38.96546 | 37999 ft | 450 kts | 352° |
| 2026-05-06 08:35 | 13.97086 | 38.95854 | 37998 ft | 450 kts | 352° |
| 2026-05-06 08:35 | 14.03321 | 38.95159 | 37995 ft | 451 kts | 352° |
| 2026-05-06 08:36 | 14.09530 | 38.94474 | 37989 ft | 452 kts | 352° |
| 2026-05-06 08:36 | 14.15827 | 38.93781 | 37989 ft | 452 kts | 352° |
| 2026-05-06 08:37 | 14.22048 | 38.93096 | 37973 ft | 453 kts | 352° |
| 2026-05-06 08:37 | 14.28323 | 38.92406 | 37985 ft | 453 kts | 352° |
| 2026-05-06 08:38 | 14.34589 | 38.91710 | 37978 ft | 453 kts | 352° |
| 2026-05-06 08:38 | 14.40857 | 38.91014 | 37969 ft | 453 kts | 352° |
| 2026-05-06 08:39 | 14.47121 | 38.90317 | 37971 ft | 452 kts | 352° |
| 2026-05-06 08:39 | 14.53418 | 38.89999 | 37964 ft | 454 kts | 358° |
| 2026-05-06 08:40 | 14.59743 | 38.90016 | 37964 ft | 455 kts | 358° |
| 2026-05-06 08:40 | 14.66068 | 38.90022 | 37966 ft | 455 kts | 358° |
| 2026-05-06 08:41 | 14.72391 | 38.90021 | 37974 ft | 455 kts | 358° |
| 2026-05-06 08:41 | 14.78724 | 38.90025 | 37974 ft | 455 kts | 358° |
| 2026-05-06 08:42 | 14.85014 | 38.90036 | 37982 ft | 455 kts | 358° |
| 2026-05-06 08:42 | 14.91350 | 38.90044 | 37987 ft | 455 kts | 358° |
| 2026-05-06 08:43 | 14.97685 | 38.90048 | 37991 ft | 455 kts | 358° |
| 2026-05-06 08:43 | 15.04024 | 38.90053 | 37994 ft | 455 kts | 358° |
| 2026-05-06 08:44 | 15.10365 | 38.90058 | 37995 ft | 456 kts | 358° |
| 2026-05-06 08:44 | 15.16707 | 38.90068 | 37994 ft | 456 kts | 358° |
| 2026-05-06 08:45 | 15.23046 | 38.90079 | 37996 ft | 456 kts | 358° |
| 2026-05-06 08:45 | 15.29390 | 38.90093 | 37991 ft | 456 kts | 359° |
| 2026-05-06 08:46 | 15.35737 | 38.90258 | 37993 ft | 456 kts | 0° |
| 2026-05-06 08:46 | 15.42089 | 38.90537 | 37990 ft | 457 kts | 0° |
| 2026-05-06 08:47 | 15.48437 | 38.90803 | 37985 ft | 457 kts | 0° |
| 2026-05-06 08:47 | 15.54785 | 38.91034 | 37983 ft | 456 kts | 0° |
| 2026-05-06 08:48 | 15.61094 | 38.91256 | 37971 ft | 457 kts | 0° |
| 2026-05-06 08:48 | 15.67457 | 38.91485 | 37959 ft | 458 kts | 0° |
| 2026-05-06 08:49 | 15.73826 | 38.91714 | 37961 ft | 458 kts | 360° |
| 2026-05-06 08:49 | 15.80190 | 38.91940 | 37954 ft | 458 kts | 360° |
| 2026-05-06 08:50 | 15.86558 | 38.92169 | 37958 ft | 458 kts | 360° |
| 2026-05-06 08:50 | 15.92925 | 38.92398 | 37944 ft | 458 kts | 360° |
| 2026-05-06 08:51 | 15.99298 | 38.92622 | 37948 ft | 458 kts | 360° |
| 2026-05-06 08:51 | 16.05677 | 38.92855 | 37947 ft | 459 kts | 360° |
| 2026-05-06 08:52 | 16.12057 | 38.93089 | 37945 ft | 459 kts | 360° |
| 2026-05-06 08:52 | 16.18432 | 38.93321 | 37935 ft | 459 kts | 360° |
| 2026-05-06 08:53 | 16.24821 | 38.93548 | 37927 ft | 459 kts | 360° |
| 2026-05-06 08:53 | 16.30124 | 38.93735 | 37928 ft | 459 kts | 360° |
| 2026-05-06 08:54 | 16.37551 | 38.94006 | 37921 ft | 460 kts | 360° |
| 2026-05-06 08:54 | 16.42908 | 38.94204 | 37922 ft | 460 kts | 360° |
| 2026-05-06 08:55 | 16.49300 | 38.94436 | 37920 ft | 460 kts | 360° |
| 2026-05-06 08:55 | 16.55696 | 38.94670 | 37921 ft | 460 kts | 359° |
| 2026-05-06 08:56 | 16.62096 | 38.94898 | 37913 ft | 460 kts | 359° |
| 2026-05-06 08:56 | 16.68451 | 38.95130 | 37910 ft | 460 kts | 359° |
| 2026-05-06 08:57 | 16.74853 | 38.95370 | 37907 ft | 461 kts | 359° |
| 2026-05-06 08:57 | 16.81257 | 38.95603 | 37911 ft | 461 kts | 359° |
| 2026-05-06 08:58 | 16.87662 | 38.95830 | 37907 ft | 461 kts | 359° |
| 2026-05-06 08:58 | 16.94074 | 38.96068 | 37905 ft | 461 kts | 359° |
| 2026-05-06 08:59 | 17.00497 | 38.96298 | 37910 ft | 462 kts | 359° |
| 2026-05-06 08:59 | 17.06911 | 38.96531 | 37913 ft | 461 kts | 359° |
| 2026-05-06 09:00 | 17.13322 | 38.96770 | 37911 ft | 461 kts | 359° |
| 2026-05-06 09:00 | 17.19744 | 38.97001 | 37911 ft | 462 kts | 359° |
| 2026-05-06 09:01 | 17.26163 | 38.97233 | 37914 ft | 462 kts | 359° |
| 2026-05-06 09:01 | 17.32583 | 38.97461 | 37914 ft | 462 kts | 359° |
| 2026-05-06 09:02 | 17.39010 | 38.97697 | 37916 ft | 462 kts | 359° |
| 2026-05-06 09:02 | 17.45431 | 38.97934 | 37911 ft | 462 kts | 359° |
| 2026-05-06 09:03 | 17.51863 | 38.98164 | 37913 ft | 462 kts | 359° |
| 2026-05-06 09:03 | 17.58294 | 38.98395 | 37909 ft | 463 kts | 359° |
| 2026-05-06 09:04 | 17.64691 | 38.98623 | 37913 ft | 463 kts | 359° |
| 2026-05-06 09:04 | 17.71125 | 38.98854 | 37911 ft | 463 kts | 359° |
| 2026-05-06 09:05 | 17.77568 | 38.99092 | 37911 ft | 463 kts | 359° |
| 2026-05-06 09:05 | 17.84012 | 38.99324 | 37914 ft | 464 kts | 359° |
| 2026-05-06 09:06 | 17.90464 | 38.99558 | 37915 ft | 464 kts | 359° |
| 2026-05-06 09:06 | 17.96918 | 38.99787 | 37915 ft | 464 kts | 359° |
| 2026-05-06 09:07 | 18.03368 | 39.00015 | 37917 ft | 464 kts | 359° |
| 2026-05-06 09:07 | 18.09824 | 39.00250 | 37915 ft | 464 kts | 359° |
| 2026-05-06 09:08 | 18.16291 | 39.00489 | 37914 ft | 465 kts | 358° |
| 2026-05-06 09:08 | 18.22751 | 39.00781 | 37919 ft | 465 kts | 359° |
| 2026-05-06 09:09 | 18.29214 | 39.01158 | 37916 ft | 465 kts | 360° |
| 2026-05-06 09:09 | 18.35676 | 39.01547 | 37908 ft | 465 kts | 359° |
| 2026-05-06 09:10 | 18.42140 | 39.01911 | 37914 ft | 465 kts | 359° |
| 2026-05-06 09:10 | 18.48562 | 39.02265 | 37908 ft | 465 kts | 359° |
| 2026-05-06 09:11 | 18.55027 | 39.02621 | 37917 ft | 465 kts | 359° |
| 2026-05-06 09:11 | 18.61496 | 39.02973 | 37908 ft | 465 kts | 359° |
| 2026-05-06 09:12 | 18.67967 | 39.03327 | 37913 ft | 466 kts | 359° |
| 2026-05-06 09:12 | 18.74437 | 39.03689 | 37903 ft | 466 kts | 359° |
| 2026-05-06 09:13 | 18.80914 | 39.04050 | 37905 ft | 466 kts | 359° |
| 2026-05-06 09:13 | 18.87390 | 39.04411 | 37919 ft | 466 kts | 359° |
| 2026-05-06 09:14 | 18.93872 | 39.04774 | 37907 ft | 466 kts | 359° |
| 2026-05-06 09:14 | 19.00357 | 39.05125 | 37907 ft | 467 kts | 358° |
| 2026-05-06 09:15 | 19.06852 | 39.05475 | 37909 ft | 467 kts | 358° |
| 2026-05-06 09:15 | 19.13310 | 39.05432 | 37905 ft | 460 kts | 346° |
| 2026-05-06 09:16 | 19.19467 | 39.03843 | 37905 ft | 455 kts | 339° |
| 2026-05-06 09:16 | 19.25580 | 39.02087 | 37908 ft | 455 kts | 339° |
| 2026-05-06 09:17 | 19.31701 | 39.00357 | 37910 ft | 455 kts | 339° |
| 2026-05-06 09:17 | 19.37822 | 38.98619 | 37913 ft | 455 kts | 339° |
| 2026-05-06 09:18 | 19.43902 | 38.96889 | 37914 ft | 455 kts | 339° |
| 2026-05-06 09:18 | 19.50018 | 38.95137 | 37913 ft | 455 kts | 339° |
| 2026-05-06 09:19 | 19.56136 | 38.93387 | 37918 ft | 455 kts | 339° |
| 2026-05-06 09:19 | 19.62260 | 38.91638 | 37914 ft | 456 kts | 339° |
| 2026-05-06 09:20 | 19.68384 | 38.89891 | 37917 ft | 456 kts | 339° |
| 2026-05-06 09:20 | 19.74502 | 38.88136 | 37919 ft | 455 kts | 339° |
| 2026-05-06 09:21 | 19.80615 | 38.86380 | 37919 ft | 455 kts | 339° |
| 2026-05-06 09:21 | 19.86727 | 38.84627 | 37920 ft | 455 kts | 338° |
| 2026-05-06 09:22 | 19.92839 | 38.82868 | 37921 ft | 455 kts | 338° |
| 2026-05-06 09:22 | 19.98950 | 38.81113 | 37921 ft | 455 kts | 338° |
| 2026-05-06 09:23 | 20.05060 | 38.79361 | 37919 ft | 455 kts | 338° |
| 2026-05-06 09:23 | 20.11127 | 38.77618 | 37918 ft | 455 kts | 338° |
| 2026-05-06 09:24 | 20.17224 | 38.75853 | 37918 ft | 454 kts | 338° |
| 2026-05-06 09:24 | 20.23325 | 38.74089 | 37919 ft | 454 kts | 338° |
| 2026-05-06 09:25 | 20.29424 | 38.72335 | 37922 ft | 454 kts | 338° |
| 2026-05-06 09:25 | 20.35526 | 38.70579 | 37923 ft | 454 kts | 338° |
| 2026-05-06 09:26 | 20.41624 | 38.68814 | 37924 ft | 454 kts | 337° |
| 2026-05-06 09:26 | 20.47715 | 38.67052 | 37923 ft | 454 kts | 337° |
| 2026-05-06 09:27 | 20.53811 | 38.65295 | 37928 ft | 454 kts | 337° |
| 2026-05-06 09:27 | 20.59904 | 38.63534 | 37929 ft | 454 kts | 337° |
| 2026-05-06 09:28 | 20.65995 | 38.61761 | 37933 ft | 454 kts | 336° |
| 2026-05-06 09:28 | 20.72089 | 38.59989 | 37929 ft | 454 kts | 336° |
| 2026-05-06 09:29 | 20.78138 | 38.58228 | 37932 ft | 453 kts | 336° |
| 2026-05-06 09:29 | 20.81253 | 38.57560 | 37932 ft | 463 kts | 347° |
| 2026-05-06 09:29 | 20.84509 | 38.57508 | 37924 ft | 475 kts | 358° |
| 2026-05-06 09:29 | 20.87794 | 38.58127 | 37921 ft | 486 kts | 10° |
| 2026-05-06 09:30 | 20.90974 | 38.59438 | 37914 ft | 495 kts | 23° |
| 2026-05-06 09:30 | 20.96917 | 38.63261 | 37916 ft | 500 kts | 27° |
| 2026-05-06 09:31 | 21.02842 | 38.67158 | 37919 ft | 500 kts | 27° |
| 2026-05-06 09:31 | 21.08772 | 38.71046 | 37919 ft | 500 kts | 27° |
| 2026-05-06 09:32 | 21.14708 | 38.74937 | 37920 ft | 500 kts | 27° |
| 2026-05-06 09:32 | 21.20640 | 38.78842 | 37916 ft | 501 kts | 27° |
| 2026-05-06 09:33 | 21.26573 | 38.82755 | 37915 ft | 501 kts | 27° |
| 2026-05-06 09:33 | 21.32508 | 38.86681 | 37908 ft | 501 kts | 27° |
| 2026-05-06 09:34 | 21.38448 | 38.90603 | 37911 ft | 501 kts | 27° |
| 2026-05-06 09:34 | 21.44396 | 38.94526 | 37898 ft | 502 kts | 27° |
| 2026-05-06 09:35 | 21.50338 | 38.98454 | 37893 ft | 502 kts | 27° |
| 2026-05-06 09:35 | 21.56266 | 39.02377 | 37714 ft | 509 kts | 27° |
| 2026-05-06 09:35 | 21.59304 | 39.04383 | 37451 ft | 515 kts | 27° |
| 2026-05-06 09:36 | 21.62354 | 39.06403 | 37189 ft | 515 kts | 27° |
| 2026-05-06 09:36 | 21.65391 | 39.08420 | 36954 ft | 513 kts | 27° |
| 2026-05-06 09:36 | 21.68422 | 39.10436 | 36689 ft | 511 kts | 27° |
| 2026-05-06 09:36 | 21.71499 | 39.12312 | 36442 ft | 504 kts | 19° |
| 2026-05-06 09:37 | 21.74749 | 39.13662 | 36203 ft | 498 kts | 13° |
| 2026-05-06 09:37 | 21.78015 | 39.14909 | 35961 ft | 497 kts | 13° |
| 2026-05-06 09:37 | 21.81261 | 39.16144 | 35721 ft | 495 kts | 13° |
| 2026-05-06 09:37 | 21.84508 | 39.17378 | 35485 ft | 494 kts | 13° |
| 2026-05-06 09:38 | 21.87744 | 39.18613 | 35257 ft | 492 kts | 13° |
| 2026-05-06 09:38 | 21.90964 | 39.19846 | 35028 ft | 491 kts | 13° |
| 2026-05-06 09:38 | 21.94177 | 39.21082 | 34806 ft | 489 kts | 13° |
| 2026-05-06 09:38 | 21.97376 | 39.22312 | 34582 ft | 488 kts | 13° |
| 2026-05-06 09:39 | 22.00571 | 39.23538 | 34362 ft | 487 kts | 13° |
| 2026-05-06 09:39 | 22.03757 | 39.24756 | 34140 ft | 485 kts | 13° |
| 2026-05-06 09:39 | 22.06936 | 39.25967 | 33920 ft | 484 kts | 13° |
| 2026-05-06 09:39 | 22.10106 | 39.27176 | 33674 ft | 482 kts | 13° |
| 2026-05-06 09:40 | 22.13256 | 39.28383 | 33420 ft | 480 kts | 13° |
| 2026-05-06 09:40 | 22.16397 | 39.29590 | 33167 ft | 478 kts | 13° |
| 2026-05-06 09:40 | 22.22581 | 39.31978 | 32680 ft | 473 kts | 13° |
| 2026-05-06 09:41 | 22.25672 | 39.33170 | 32436 ft | 470 kts | 13° |
| 2026-05-06 09:41 | 22.28785 | 39.34367 | 32189 ft | 468 kts | 13° |
| 2026-05-06 09:41 | 22.31811 | 39.35525 | 31953 ft | 466 kts | 13° |
| 2026-05-06 09:41 | 22.34856 | 39.36694 | 31720 ft | 463 kts | 13° |
| 2026-05-06 09:42 | 22.37882 | 39.37857 | 31484 ft | 461 kts | 13° |
| 2026-05-06 09:42 | 22.40897 | 39.39017 | 31249 ft | 459 kts | 13° |
| 2026-05-06 09:42 | 22.43898 | 39.40176 | 31017 ft | 458 kts | 13° |
| 2026-05-06 09:42 | 22.46890 | 39.41334 | 30786 ft | 454 kts | 13° |
| 2026-05-06 09:43 | 22.49853 | 39.42479 | 30560 ft | 452 kts | 13° |
| 2026-05-06 09:43 | 22.52807 | 39.43620 | 30338 ft | 449 kts | 14° |
| 2026-05-06 09:43 | 22.55745 | 39.44753 | 30109 ft | 447 kts | 13° |
| 2026-05-06 09:43 | 22.58670 | 39.45880 | 29864 ft | 445 kts | 14° |
| 2026-05-06 09:44 | 22.61577 | 39.47003 | 29594 ft | 443 kts | 14° |
| 2026-05-06 09:44 | 22.64467 | 39.48122 | 29331 ft | 440 kts | 14° |
| 2026-05-06 09:44 | 22.67347 | 39.49238 | 29065 ft | 439 kts | 14° |
| 2026-05-06 09:44 | 22.70214 | 39.50350 | 28806 ft | 437 kts | 14° |
| 2026-05-06 09:45 | 22.73064 | 39.51453 | 28556 ft | 434 kts | 14° |
| 2026-05-06 09:45 | 22.75905 | 39.52552 | 28297 ft | 432 kts | 14° |
| 2026-05-06 09:45 | 22.78726 | 39.53643 | 28043 ft | 430 kts | 14° |
| 2026-05-06 09:45 | 22.80587 | 39.54362 | 27879 ft | 428 kts | 14° |
| 2026-05-06 09:46 | 22.83391 | 39.55445 | 27633 ft | 427 kts | 14° |
| 2026-05-06 09:46 | 22.86180 | 39.56523 | 27380 ft | 425 kts | 14° |
| 2026-05-06 09:46 | 22.88957 | 39.57600 | 27143 ft | 423 kts | 15° |
| 2026-05-06 09:46 | 22.91719 | 39.58669 | 26902 ft | 421 kts | 15° |
| 2026-05-06 09:47 | 22.94475 | 39.59736 | 26657 ft | 419 kts | 15° |
| 2026-05-06 09:47 | 22.97225 | 39.60805 | 26419 ft | 418 kts | 15° |
| 2026-05-06 09:47 | 22.99957 | 39.61849 | 26177 ft | 414 kts | 12° |
| 2026-05-06 09:47 | 23.02740 | 39.62526 | 25945 ft | 406 kts | 2° |
| 2026-05-06 09:48 | 23.05528 | 39.62749 | 25711 ft | 401 kts | 356° |
| 2026-05-06 09:48 | 23.08306 | 39.62884 | 25476 ft | 399 kts | 357° |
| 2026-05-06 09:48 | 23.11074 | 39.63021 | 25247 ft | 397 kts | 357° |
| 2026-05-06 09:48 | 23.13833 | 39.63162 | 25021 ft | 396 kts | 357° |
| 2026-05-06 09:49 | 23.16584 | 39.63304 | 24798 ft | 395 kts | 358° |
| 2026-05-06 09:49 | 23.19324 | 39.63450 | 24570 ft | 393 kts | 358° |
| 2026-05-06 09:49 | 23.22047 | 39.63596 | 24349 ft | 390 kts | 358° |
| 2026-05-06 09:49 | 23.24687 | 39.63739 | 23973 ft | 381 kts | 358° |
| 2026-05-06 09:50 | 23.27316 | 39.63878 | 23511 ft | 376 kts | 358° |
| 2026-05-06 09:50 | 23.29912 | 39.64012 | 23004 ft | 370 kts | 358° |
| 2026-05-06 09:50 | 23.32449 | 39.64144 | 22571 ft | 361 kts | 358° |
| 2026-05-06 09:50 | 23.34937 | 39.64273 | 22155 ft | 354 kts | 359° |
| 2026-05-06 09:51 | 23.37384 | 39.64398 | 21738 ft | 350 kts | 359° |
| 2026-05-06 09:51 | 23.39809 | 39.64519 | 21327 ft | 348 kts | 359° |
| 2026-05-06 09:51 | 23.42228 | 39.64640 | 20932 ft | 347 kts | 359° |
| 2026-05-06 09:51 | 23.44635 | 39.64763 | 20526 ft | 346 kts | 359° |
| 2026-05-06 09:52 | 23.47033 | 39.64888 | 20122 ft | 343 kts | 359° |
| 2026-05-06 09:52 | 23.49410 | 39.65016 | 19719 ft | 341 kts | 360° |
| 2026-05-06 09:52 | 23.51775 | 39.65143 | 19319 ft | 340 kts | 360° |
| 2026-05-06 09:52 | 23.54138 | 39.65270 | 18925 ft | 339 kts | 360° |
| 2026-05-06 09:53 | 23.56486 | 39.65392 | 18524 ft | 337 kts | 0° |
| 2026-05-06 09:53 | 23.58824 | 39.65513 | 18097 ft | 335 kts | 0° |
| 2026-05-06 09:53 | 23.61148 | 39.65632 | 17682 ft | 334 kts | 1° |
| 2026-05-06 09:53 | 23.63474 | 39.65750 | 17295 ft | 333 kts | 0° |
| 2026-05-06 09:54 | 23.65774 | 39.65869 | 16907 ft | 330 kts | 0° |
| 2026-05-06 09:54 | 23.68061 | 39.65985 | 16535 ft | 328 kts | 0° |
| 2026-05-06 09:54 | 23.70333 | 39.66102 | 16151 ft | 326 kts | 1° |
| 2026-05-06 09:54 | 23.72596 | 39.66485 | 15756 ft | 342 kts | 12° |
| 2026-05-06 09:55 | 23.74953 | 39.67101 | 15296 ft | 349 kts | 12° |
| 2026-05-06 09:55 | 23.77300 | 39.67720 | 14845 ft | 347 kts | 12° |
| 2026-05-06 09:55 | 23.79614 | 39.68330 | 14402 ft | 345 kts | 12° |
| 2026-05-06 09:55 | 23.81943 | 39.68940 | 13956 ft | 343 kts | 12° |
| 2026-05-06 09:56 | 23.84250 | 39.69544 | 13486 ft | 340 kts | 12° |
| 2026-05-06 09:56 | 23.86543 | 39.70143 | 13036 ft | 336 kts | 12° |
| 2026-05-06 09:56 | 23.88804 | 39.70732 | 12603 ft | 333 kts | 12° |
| 2026-05-06 09:56 | 23.91046 | 39.71316 | 12173 ft | 329 kts | 12° |
| 2026-05-06 09:57 | 23.93261 | 39.71893 | 11745 ft | 326 kts | 12° |
| 2026-05-06 09:57 | 23.95454 | 39.72465 | 11327 ft | 322 kts | 12° |
| 2026-05-06 09:57 | 23.97619 | 39.73032 | 10908 ft | 317 kts | 11° |
| 2026-05-06 09:57 | 23.99759 | 39.73594 | 10501 ft | 315 kts | 12° |
| 2026-05-06 09:58 | 24.01882 | 39.74149 | 10094 ft | 312 kts | 11° |
| 2026-05-06 09:58 | 24.03982 | 39.74700 | 9670 ft | 310 kts | 11° |
| 2026-05-06 09:58 | 24.06070 | 39.75249 | 9255 ft | 306 kts | 11° |
| 2026-05-06 09:58 | 24.08134 | 39.75793 | 8859 ft | 305 kts | 12° |
| 2026-05-06 09:59 | 24.10189 | 39.76335 | 8471 ft | 303 kts | 12° |
| 2026-05-06 09:59 | 24.12233 | 39.76873 | 8090 ft | 299 kts | 12° |
| 2026-05-06 09:59 | 24.14193 | 39.77389 | 7988 ft | 280 kts | 12° |
| 2026-05-06 09:59 | 24.16027 | 39.77873 | 7881 ft | 263 kts | 11° |
| 2026-05-06 10:00 | 24.17729 | 39.78315 | 7773 ft | 246 kts | 8° |
| 2026-05-06 10:00 | 24.19390 | 39.78413 | 7578 ft | 237 kts | 351° |
| 2026-05-06 10:00 | 24.21010 | 39.78119 | 7325 ft | 235 kts | 345° |
| 2026-05-06 10:00 | 24.22605 | 39.77760 | 7046 ft | 233 kts | 346° |
| 2026-05-06 10:01 | 24.24194 | 39.77416 | 6777 ft | 232 kts | 346° |
| 2026-05-06 10:01 | 24.25772 | 39.77082 | 6493 ft | 229 kts | 346° |
| 2026-05-06 10:01 | 24.27337 | 39.76752 | 6206 ft | 229 kts | 346° |
| 2026-05-06 10:01 | 24.28915 | 39.76418 | 5945 ft | 231 kts | 347° |
| 2026-05-06 10:02 | 24.30461 | 39.76092 | 5885 ft | 225 kts | 347° |
| 2026-05-06 10:02 | 24.32025 | 39.75761 | 5769 ft | 228 kts | 347° |
| 2026-05-06 10:02 | 24.33585 | 39.75431 | 5617 ft | 229 kts | 346° |
| 2026-05-06 10:02 | 24.35151 | 39.75100 | 5537 ft | 230 kts | 347° |
| 2026-05-06 10:03 | 24.36707 | 39.74770 | 5357 ft | 228 kts | 347° |
| 2026-05-06 10:03 | 24.38270 | 39.74439 | 5043 ft | 228 kts | 347° |
| 2026-05-06 10:03 | 24.39781 | 39.74120 | 4791 ft | 216 kts | 347° |
| 2026-05-06 10:03 | 24.41213 | 39.73818 | 4516 ft | 206 kts | 347° |
| 2026-05-06 10:04 | 24.42575 | 39.73529 | 4273 ft | 194 kts | 347° |
| 2026-05-06 10:04 | 24.43854 | 39.73258 | 4061 ft | 182 kts | 346° |
| 2026-05-06 10:04 | 24.45047 | 39.73006 | 3810 ft | 168 kts | 349° |
| 2026-05-06 10:04 | 24.46189 | 39.72763 | 3586 ft | 163 kts | 347° |
| 2026-05-06 10:05 | 24.47277 | 39.72533 | 3387 ft | 160 kts | 345° |
| 2026-05-06 10:05 | 24.48357 | 39.72303 | 3178 ft | 155 kts | 346° |
| 2026-05-06 10:05 | 24.49386 | 39.72085 | 2971 ft | 148 kts | 347° |
| 2026-05-06 10:05 | 24.50367 | 39.71877 | 2788 ft | 142 kts | 347° |
| 2026-05-06 10:06 | 24.51332 | 39.71672 | 2585 ft | 141 kts | 348° |
| 2026-05-06 10:06 | 24.52289 | 39.71469 | 2412 ft | 139 kts | 348° |
| 2026-05-06 10:06 | 24.53240 | 39.71267 | 2231 ft | 139 kts | 347° |
| 2026-05-06 10:06 | 24.54179 | 39.71067 | 2080 ft | 131 kts | 348° |
| 2026-05-06 10:07 | 24.54808 | 39.70919 | 2093 ft | 24 kts | 352° |
| 2026-05-06 10:07 | 24.54873 | 39.70969 | 2094 ft | 16 kts | 90° |
| 2026-05-06 10:07 | 24.54831 | 39.71147 | 2092 ft | 23 kts | 70° |
| 2026-05-06 10:07 | 24.54826 | 39.71313 | 2092 ft | 22 kts | 124° |
| 2026-05-06 10:08 | 24.54823 | 39.71437 | 2092 ft | 13 kts | 5° |
| 2026-05-06 10:08 | 24.54841 | 39.71413 | 2092 ft | 0 kts | 265° |